Time;durP1;ratioP1;P1;durP2;ratioP2;P2;SDS_P1;SDS_P2;PMS_P1;PMS_P2;Temp;Humidity;BMP_temperature;BMP_pressure;BME280_temperature;BME280_humidity;BME280_pressure;Samples;Min_cycle;Max_cycle;Signal;HPM_P1;HPM_P2
2021/08/01 00:00:20;;;;;;;8.05;7.25;;;15.30;99.90;;;16.68;98.57;99892.50;6279822;22;20000;-89
2021/08/01 00:02:47;;;;;;;10.00;7.90;;;15.30;99.90;;;16.69;98.48;99896.94;6279386;22;20057;-92
2021/08/01 00:05:13;;;;;;;13.07;8.52;;;15.40;99.90;;;16.67;98.50;99888.09;6279291;22;20092;-89
2021/08/01 00:07:39;;;;;;;11.93;8.85;;;15.40;99.90;;;16.64;98.80;99882.47;6253579;22;20008;-89
2021/08/01 00:10:09;;;;;;;13.23;9.23;;;15.30;99.90;;;16.62;98.90;99874.44;6253604;22;20019;-91
2021/08/01 00:12:36;;;;;;;13.95;10.15;;;15.30;99.90;;;16.65;99.54;99884.09;6254615;22;20008;-93
2021/08/01 00:15:03;;;;;;;11.82;8.20;;;15.30;99.90;;;16.68;99.19;99884.06;6279764;22;20000;-91
2021/08/01 00:17:29;;;;;;;14.13;8.80;;;15.30;99.90;;;16.65;99.22;99876.44;6254634;22;20041;-89
2021/08/01 00:19:55;;;;;;;11.60;8.85;;;15.40;99.90;;;16.63;99.19;99880.91;6284429;22;20129;-90
2021/08/01 00:22:24;;;;;;;11.93;9.27;;;15.30;99.90;;;16.54;99.52;99872.88;6261349;22;20008;-92
2021/08/01 00:24:51;;;;;;;12.60;9.18;;;15.20;99.90;;;16.53;99.45;99870.50;6286646;22;20008;-91
2021/08/01 00:27:17;;;;;;;11.77;9.40;;;15.30;99.90;;;16.56;99.54;99869.69;6259968;22;20011;-91
2021/08/01 00:29:44;;;;;;;9.07;7.78;;;15.20;99.90;;;16.46;99.75;99864.91;6259342;22;20107;-92
2021/08/01 00:32:09;;;;;;;13.32;10.27;;;15.10;99.90;;;16.40;99.71;99858.94;6286931;22;20077;-89
2021/08/01 00:34:36;;;;;;;11.30;9.63;;;15.10;99.90;;;16.31;100.00;99867.06;6287701;22;20003;-90
2021/08/01 00:37:02;;;;;;;13.25;9.10;;;15.10;99.90;;;16.34;100.00;99874.69;6287206;22;20019;-90
2021/08/01 00:39:28;;;;;;;10.45;8.23;;;15.10;99.90;;;16.33;100.00;99868.25;6285709;22;20003;-89
2021/08/01 00:41:56;;;;;;;11.93;9.95;;;15.00;99.90;;;16.32;100.00;99854.56;6285327;22;20616;-91
2021/08/01 00:44:24;;;;;;;11.63;9.90;;;15.10;99.90;;;16.39;100.00;99859.34;6285547;22;20050;-89
2021/08/01 00:46:50;;;;;;;12.55;9.32;;;15.10;99.90;;;16.31;100.00;99848.13;6256855;22;20318;-89
2021/08/01 00:49:16;;;;;;;11.50;10.30;;;15.00;99.90;;;16.28;100.00;99845.31;6256378;22;20007;-90
2021/08/01 00:51:43;;;;;;;13.10;9.23;;;15.00;99.90;;;16.26;100.00;99845.75;6282132;22;20421;-91
2021/08/01 00:54:10;;;;;;;14.25;9.80;;;14.90;99.90;;;16.23;100.00;99849.41;6257018;22;20012;-89
2021/08/01 00:56:36;;;;;;;13.88;9.98;;;14.90;99.90;;;16.22;100.00;99844.19;6283148;22;20008;-91
2021/08/01 00:59:03;;;;;;;9.98;8.70;;;14.90;99.90;;;16.18;100.00;99841.38;6282998;22;20004;-92
2021/08/01 01:02:03;;;;;;;14.30;10.18;;;14.90;99.90;;;16.20;100.00;99843.81;6256561;22;20011;-89
2021/08/01 01:05:13;;;;;;;11.60;10.40;;;14.90;99.90;;;16.22;100.00;99847.78;6255306;22;20015;-88
2021/08/01 01:08:14;;;;;;;13.18;10.90;;;14.90;99.90;;;16.21;100.00;99851.81;6261689;22;20073;-91
2021/08/01 01:10:48;;;;;;;15.18;11.20;;;14.90;99.90;;;16.15;100.00;99849.91;6270761;22;19996;-91
2021/08/01 01:13:33;;;;;;;15.27;11.65;;;14.90;99.90;;;16.08;100.00;99836.66;6254965;22;20011;-92
2021/08/01 01:16:02;;;;;;;13.35;11.82;;;14.80;99.90;;;16.09;100.00;99841.06;6254436;22;20054;-91
2021/08/01 01:18:47;;;;;;;15.20;11.40;;;14.80;99.90;;;16.09;100.00;99849.50;6253813;22;20004;-89
2021/08/01 01:21:41;;;;;;;12.43;11.02;;;14.90;99.90;;;16.11;100.00;99854.75;6283070;22;20007;-89
2021/08/01 01:24:17;;;;;;;18.25;13.23;;;14.80;99.90;;;16.03;100.00;99837.09;6258982;22;20007;-90
2021/08/01 01:27:02;;;;;;;14.48;11.73;;;14.70;99.90;;;16.03;100.00;99837.09;6257670;22;20089;-89
2021/08/01 01:30:04;;;;;;;16.00;11.40;;;14.70;99.90;;;15.98;100.00;99828.28;6254228;22;20016;-90
2021/08/01 01:32:55;;;;;;;12.07;10.25;;;14.60;99.90;;;15.92;100.00;99833.56;6259165;22;20012;-92
2021/08/01 01:35:21;;;;;;;14.68;11.43;;;14.60;99.90;;;15.80;100.00;99823.59;6258422;22;20018;-91
2021/08/01 01:37:52;;;;;;;17.08;12.77;;;14.50;99.90;;;15.76;100.00;99833.28;6257625;22;20012;-90
2021/08/01 01:40:24;;;;;;;15.32;12.85;;;14.50;99.90;;;15.73;100.00;99834.13;6258963;22;20087;-90
2021/08/01 01:42:55;;;;;;;14.63;11.80;;;14.40;99.90;;;15.70;100.00;99840.56;6258516;22;20027;-90
2021/08/01 01:45:21;;;;;;;17.38;12.75;;;14.50;99.90;;;15.65;100.00;99830.53;6259555;22;20069;-90
2021/08/01 01:47:50;;;;;;;15.30;11.05;;;14.50;99.90;;;15.69;100.00;99838.97;6258243;22;20377;-90
2021/08/01 01:50:18;;;;;;;18.98;13.13;;;14.40;99.90;;;15.72;100.00;99847.38;6256411;22;20004;-91
2021/08/01 01:52:50;;;;;;;17.33;13.68;;;14.40;99.90;;;15.76;100.00;99844.56;6257095;22;20004;-89
2021/08/01 01:55:23;;;;;;;20.45;13.60;;;14.40;99.90;;;15.80;100.00;99840.47;6257526;22;20067;-88
2021/08/01 01:57:49;;;;;;;19.25;14.20;;;14.50;99.90;;;15.90;100.00;99844.44;6258384;22;20012;-89
2021/08/01 02:00:17;;;;;;;17.35;13.63;;;14.60;99.90;;;15.94;100.00;99841.59;6258212;22;20004;-90
2021/08/01 02:02:44;;;;;;;19.08;13.55;;;14.60;99.90;;;15.97;100.00;99832.31;6286486;22;20030;-91
2021/08/01 02:05:11;;;;;;;16.02;12.27;;;14.60;99.90;;;15.94;100.00;99827.50;6263660;22;20004;-91
2021/08/01 02:07:38;;;;;;;15.70;12.02;;;14.60;99.90;;;15.98;100.00;99828.28;6274955;22;20072;-93
2021/08/01 02:10:53;;;;;;;19.65;13.93;;;14.70;99.90;;;15.95;100.00;99829.94;6275597;22;20035;-88
2021/08/01 02:13:30;;;;;;;18.80;13.75;;;14.60;99.90;;;16.00;100.00;99843.56;6245137;22;20011;-88
2021/08/01 02:16:00;;;;;;;17.60;13.15;;;14.70;99.90;;;16.03;100.00;99841.91;6256581;22;20010;-90
2021/08/01 02:18:45;;;;;;;15.55;13.90;;;14.70;99.90;;;16.00;100.00;99831.50;6256217;22;20003;-90
2021/08/01 02:21:21;;;;;;;18.58;14.07;;;14.70;99.90;;;16.08;100.00;99838.69;6256554;22;20010;-91
2021/08/01 02:23:51;;;;;;;18.05;15.05;;;14.80;99.90;;;16.03;100.00;99836.28;6257271;22;20004;-89
2021/08/01 02:26:25;;;;;;;19.33;14.65;;;14.80;99.90;;;16.14;100.00;99839.84;6255909;22;20008;-89
2021/08/01 02:28:56;;;;;;;19.88;15.15;;;14.80;99.90;;;16.14;100.00;99826.56;6256383;22;20031;-88
2021/08/01 02:31:24;;;;;;;20.25;15.00;;;14.80;99.90;;;16.13;100.00;99832.59;6255853;22;20008;-92
2021/08/01 02:33:54;;;;;;;19.08;14.13;;;14.80;99.90;;;16.12;100.00;99820.50;6257835;22;20003;-92
2021/08/01 02:36:24;;;;;;;19.73;14.30;;;14.90;99.90;;;16.14;100.00;99820.13;6256793;22;20004;-89
2021/08/01 02:38:57;;;;;;;18.25;12.57;;;14.90;99.90;;;16.19;100.00;99823.28;6280917;22;20008;-90
2021/08/01 02:41:37;;;;;;;20.98;14.48;;;14.90;99.90;;;16.18;100.00;99824.47;6257741;22;20008;-90
2021/08/01 02:44:13;;;;;;;18.45;15.40;;;14.90;99.90;;;16.12;100.00;99828.16;6282645;22;20014;-89
2021/08/01 02:46:50;;;;;;;20.05;14.85;;;14.90;99.90;;;16.16;100.00;99828.94;6257534;22;20063;-90
2021/08/01 02:49:27;;;;;;;22.67;15.82;;;14.80;99.90;;;16.19;100.00;99828.91;6281914;22;20007;-90
2021/08/01 02:52:10;;;;;;;21.00;14.35;;;14.90;99.90;;;16.19;100.00;99842.19;6281564;22;20012;-92
2021/08/01 02:54:41;;;;;;;19.30;13.35;;;14.90;99.90;;;16.20;100.00;99835.34;6255873;22;20030;-89
2021/08/01 02:57:12;;;;;;;22.30;14.43;;;14.90;99.90;;;16.23;100.00;99840.16;6256526;22;20012;-90
2021/08/01 02:59:42;;;;;;;18.40;13.55;;;14.90;99.90;;;16.17;100.00;99825.72;6256241;22;20079;-90
2021/08/01 03:02:11;;;;;;;19.88;14.43;;;14.90;99.90;;;16.14;100.00;99820.91;6256419;22;20017;-90
2021/08/01 03:04:42;;;;;;;21.67;14.13;;;14.90;99.90;;;16.17;100.00;99839.81;6257836;22;20014;-89
2021/08/01 03:07:12;;;;;;;19.48;14.30;;;14.90;99.90;;;16.17;100.00;99828.53;6281362;22;20015;-91
2021/08/01 03:09:38;;;;;;;23.42;14.88;;;14.90;99.90;;;16.14;100.00;99825.75;6255965;22;20004;-91
2021/08/01 03:12:14;;;;;;;18.85;13.40;;;14.90;99.90;;;16.24;100.00;99833.31;6256411;22;20007;-92
2021/08/01 03:14:41;;;;;;;;;;;14.90;99.90;;;16.26;100.00;99828.84;6258186;22;20003;-90
2021/08/01 03:17:07;;;;;;;;;;;14.90;99.90;;;16.26;100.00;99825.22;6258657;22;19903;-90
2021/08/01 03:19:39;;;;;;;19.58;12.73;;;14.90;99.90;;;16.25;100.00;99835.69;6258406;22;19903;-90
2021/08/01 03:22:06;;;;;;;21.52;14.23;;;14.80;99.90;;;16.29;100.00;99844.94;6257116;22;20092;-91
2021/08/01 03:24:33;;;;;;;19.52;14.25;;;14.90;99.90;;;16.29;100.00;99838.47;6259523;22;20003;-90
2021/08/01 03:27:04;;;;;;;18.45;13.07;;;14.90;99.90;;;16.27;100.00;99827.66;6259219;22;20058;-89
2021/08/01 03:29:29;;;;;;;19.52;14.52;;;15.00;99.90;;;16.35;100.00;99834.00;6258610;22;20004;-89
2021/08/01 03:31:55;;;;;;;21.35;14.77;;;15.10;99.90;;;16.37;100.00;99828.75;6271685;22;20010;-93
2021/08/01 03:34:21;;;;;;;21.02;15.63;;;15.10;99.90;;;16.46;100.00;99839.53;6303662;22;20000;-91
2021/08/01 03:36:48;;;;;;;22.33;15.10;;;15.10;99.90;;;16.47;100.00;99841.94;6301332;22;20027;-90
2021/08/01 03:39:15;;;;;;;21.52;15.10;;;15.20;99.90;;;16.49;100.00;99839.50;6273776;22;20012;-90
2021/08/01 03:41:42;;;;;;;18.73;14.23;;;15.20;99.90;;;16.46;100.00;99843.16;6273117;22;20026;-91
2021/08/01 03:44:11;;;;;;;19.70;14.38;;;15.20;99.90;;;16.49;100.00;99838.72;6265821;22;20004;-91
2021/08/01 03:46:39;;;;;;;19.35;14.73;;;15.10;99.90;;;16.45;100.00;99838.75;6264397;22;20086;-91
2021/08/01 03:49:05;;;;;;;20.70;14.70;;;15.20;99.90;;;16.49;100.00;99842.34;6271774;22;20003;-92
2021/08/01 03:51:31;;;;;;;22.48;16.58;;;15.20;99.90;;;16.56;100.00;99852.78;6274071;22;19996;-90
2021/08/01 03:53:58;;;;;;;18.65;13.10;;;15.10;99.90;;;16.55;100.00;99849.16;6273971;22;19999;-89
2021/08/01 03:56:24;;;;;;;23.13;16.35;;;15.10;99.90;;;16.53;100.00;99845.91;6271263;22;20055;-90
2021/08/01 03:58:50;;;;;;;24.83;16.15;;;15.20;99.90;;;16.42;100.00;99847.22;6271491;22;20027;-90
2021/08/01 04:01:16;;;;;;;22.88;14.38;;;15.10;99.90;;;16.40;100.00;99844.03;6276012;22;20076;-90
2021/08/01 04:03:47;;;;;;;23.92;17.17;;;15.00;99.90;;;16.28;100.00;99842.50;6275670;22;19999;-90
2021/08/01 04:06:12;;;;;;;24.33;15.07;;;15.10;99.90;;;16.37;100.00;99844.88;6300963;22;20026;-89
2021/08/01 04:08:38;;;;;;;23.73;15.85;;;15.00;99.90;;;16.32;100.00;99844.09;6270094;22;20031;-89
2021/08/01 04:11:06;;;;;;;20.98;14.45;;;15.10;99.90;;;16.46;100.00;99854.44;6268541;22;20014;-90
2021/08/01 04:13:33;;;;;;;21.77;14.48;;;15.10;99.90;;;16.46;100.00;99850.81;6270686;22;20007;-90
2021/08/01 04:15:59;;;;;;;23.58;15.57;;;15.10;99.90;;;16.49;100.00;99853.59;6271053;22;20004;-91
2021/08/01 04:18:29;;;;;;;19.80;15.05;;;15.10;99.90;;;16.48;100.00;99848.38;6269935;22;19988;-89
2021/08/01 04:20:55;;;;;;;27.88;17.13;;;15.10;99.90;;;16.44;100.00;99856.09;6274086;22;20018;-90
2021/08/01 04:23:21;;;;;;;18.08;14.43;;;15.10;99.90;;;16.45;100.00;99852.81;6274555;22;20011;-90
2021/08/01 04:25:48;;;;;;;24.45;15.20;;;15.10;99.90;;;16.46;100.00;99865.72;6275728;22;20008;-90
2021/08/01 04:28:14;;;;;;;18.63;15.10;;;15.10;99.90;;;16.42;100.00;99858.50;6275552;22;20042;-89
2021/08/01 04:30:40;;;;;;;19.95;14.20;;;15.10;99.90;;;16.48;100.00;99862.47;6274215;22;20003;-91
2021/08/01 04:33:06;;;;;;;23.77;16.23;;;15.10;99.90;;;16.52;100.00;99868.88;6296680;22;20000;-89
2021/08/01 04:35:33;;;;;;;22.33;15.93;;;15.10;99.90;;;16.52;100.00;99857.59;6271632;22;20062;-89
2021/08/01 04:38:01;;;;;;;19.33;14.73;;;15.10;99.90;;;16.55;100.00;99865.25;6295832;22;20067;-90
2021/08/01 04:40:28;;;;;;;24.08;15.70;;;15.20;99.90;;;16.56;100.00;99864.03;6269496;22;20003;-89
2021/08/01 04:42:54;;;;;;;19.02;14.88;;;15.20;99.90;;;16.52;100.00;99857.59;6269921;22;19995;-89
2021/08/01 04:45:20;;;;;;;21.95;15.27;;;15.20;99.90;;;16.52;100.00;99851.97;6269477;22;20023;-91
2021/08/01 04:47:47;;;;;;;21.40;14.75;;;15.20;99.90;;;16.52;100.00;99855.59;6297266;22;20267;-90
2021/08/01 04:50:14;;;;;;;17.92;13.57;;;15.20;99.90;;;16.58;100.00;99844.69;6267454;22;20011;-92
2021/08/01 04:52:40;;;;;;;17.77;13.77;;;15.20;99.90;;;16.58;100.00;99855.97;6265649;22;20018;-91
2021/08/01 04:55:07;;;;;;;21.77;15.43;;;15.20;99.90;;;16.53;100.00;99862.84;6266227;22;20011;-90
2021/08/01 04:57:33;;;;;;;20.67;14.77;;;15.20;99.90;;;16.50;100.00;99860.03;6268056;22;20007;-90
2021/08/01 05:00:00;;;;;;;22.25;14.02;;;15.30;99.90;;;16.64;100.00;99872.00;6266406;22;20010;-92
2021/08/01 05:02:25;;;;;;;18.38;14.63;;;15.30;99.90;;;16.64;100.00;99863.53;6276312;22;20061;-90
2021/08/01 05:04:51;;;;;;;18.38;14.48;;;15.30;99.90;;;16.62;100.00;99857.53;6277097;22;20093;-90
2021/08/01 05:07:17;;;;;;;22.48;14.63;;;15.30;99.90;;;16.64;100.00;99857.09;6277287;22;20007;-90
2021/08/01 05:09:43;;;;;;;27.00;16.45;;;15.30;99.90;;;16.64;100.00;99854.28;6277011;22;20011;-89
2021/08/01 05:12:09;;;;;;;19.50;13.50;;;15.40;99.90;;;16.79;100.00;99847.28;6277091;22;20019;-89
2021/08/01 05:14:36;;;;;;;22.20;14.48;;;15.40;99.90;;;16.89;100.00;99854.81;6296879;22;20015;-87
2021/08/01 05:17:02;;;;;;;22.67;14.27;;;15.40;99.90;;;17.03;100.00;99849.03;6264272;22;20039;-92
2021/08/01 05:19:29;;;;;;;22.23;14.45;;;15.60;99.90;;;17.09;100.00;99849.34;6260161;22;20604;-91
2021/08/01 05:21:55;;;;;;;19.42;14.63;;;15.70;99.90;;;17.10;100.00;99856.59;6284488;22;20004;-91
2021/08/01 05:24:20;;;;;;;19.88;14.20;;;15.70;99.90;;;17.17;100.00;99848.06;6284414;22;20019;-89
2021/08/01 05:26:46;;;;;;;22.38;15.55;;;15.70;99.90;;;17.22;99.75;99850.41;6255736;22;20029;-89
2021/08/01 05:29:12;;;;;;;23.85;14.63;;;15.80;99.90;;;17.15;99.69;99842.81;6256285;22;20027;-90
2021/08/01 05:31:38;;;;;;;20.55;15.05;;;15.80;99.90;;;17.05;100.00;99857.84;6256119;22;20004;-90
2021/08/01 05:34:04;;;;;;;22.80;14.98;;;15.70;99.90;;;17.09;100.00;99849.34;6257259;22;20015;-90
2021/08/01 05:36:30;;;;;;;20.90;14.80;;;15.70;99.90;;;17.12;100.00;99849.31;6283360;22;20008;-89
2021/08/01 05:38:56;;;;;;;18.98;14.50;;;15.70;99.90;;;17.12;100.00;99852.13;6256082;22;20006;-90
2021/08/01 05:41:30;;;;;;;20.90;15.55;;;15.80;99.90;;;17.13;99.94;99848.09;6257305;22;20067;-90
2021/08/01 05:43:55;;;;;;;20.80;14.80;;;15.80;99.90;;;17.21;99.64;99852.41;6257708;22;20486;-89
2021/08/01 05:46:21;;;;;;;20.70;14.90;;;15.80;99.90;;;17.30;99.56;99849.09;6264621;22;20031;-89
2021/08/01 05:48:47;;;;;;;19.23;14.23;;;15.90;99.90;;;17.35;99.03;99842.97;6303012;22;20015;-90
2021/08/01 05:51:13;;;;;;;17.25;12.15;;;15.90;99.90;;;17.40;98.91;99851.00;6261450;22;20015;-88
2021/08/01 05:53:39;;;;;;;17.45;13.02;;;15.90;99.90;;;17.45;98.74;99849.69;6261327;22;20030;-90
2021/08/01 05:56:12;;;;;;;18.67;12.32;;;16.00;99.90;;;17.52;97.32;99843.97;6288727;22;19999;-88
2021/08/01 05:58:40;;;;;;;16.90;12.23;;;16.00;99.90;;;17.57;96.86;99852.78;6300742;22;19999;-87
2021/08/01 06:01:16;;;;;;;16.48;12.32;;;16.10;99.90;;;17.71;95.80;99854.63;6262358;22;20019;-90
2021/08/01 06:03:43;;;;;;;17.70;12.15;;;16.20;99.90;;;17.73;94.44;99858.59;6259160;22;20007;-90
2021/08/01 06:06:24;;;;;;;13.88;10.48;;;16.30;99.90;;;17.79;94.41;99859.72;6261780;22;20046;-89
2021/08/01 06:08:52;;;;;;;15.73;11.90;;;16.30;99.90;;;17.74;94.15;99859.41;6282834;22;20008;-92
2021/08/01 06:11:21;;;;;;;18.40;12.13;;;16.30;99.90;;;17.66;95.47;99857.94;6257363;22;20061;-90
2021/08/01 06:13:49;;;;;;;14.88;10.93;;;16.30;99.90;;;17.68;95.49;99853.44;6258987;22;20019;-90
2021/08/01 06:27:29;;;;;;;18.77;11.90;;;16.60;99.90;;;18.04;92.87;99858.56;6224874;23;20017;-92
2021/08/01 06:29:55;;;;;;;16.30;11.00;;;16.60;99.90;;;18.09;92.78;99855.22;6198069;23;20017;-90
2021/08/01 06:32:20;;;;;;;15.95;10.77;;;16.70;99.90;;;18.15;93.24;99859.97;6221565;23;20005;-90
2021/08/01 06:34:46;;;;;;;13.75;11.32;;;16.60;99.90;;;18.28;92.12;99855.31;6224368;23;20023;-91
2021/08/01 06:37:12;;;;;;;18.20;11.77;;;16.80;99.90;;;18.47;90.00;99864.28;6224063;23;20012;-90
2021/08/01 06:39:38;;;;;;;17.00;11.65;;;17.00;99.90;;;18.37;90.21;99858.38;6223621;23;20015;-87
2021/08/01 06:42:25;;;;;;;18.17;12.15;;;17.00;99.90;;;18.52;89.59;99861.00;6248341;23;20008;-91
2021/08/01 06:46:09;;;;;;;15.77;12.63;;;17.10;99.90;;;18.97;87.69;99848.03;6224156;23;20091;-89
2021/08/01 06:48:54;;;;;;;16.05;11.30;;;17.30;99.90;;;19.82;85.41;99843.38;6148563;23;20014;-87
2021/08/01 06:52:28;;;;;;;15.82;12.23;;;18.00;99.90;;;20.14;82.07;99856.78;6125708;23;20009;-88
2021/08/01 06:55:36;;;;;;;17.73;11.65;;;18.40;99.90;;;20.33;79.55;99864.44;6013585;23;20019;-89
2021/08/01 06:59:11;;;;;;;17.30;12.10;;;18.60;99.90;;;20.38;78.08;99852.59;6024099;23;20107;-92
2021/08/01 07:05:35;;;;;;;20.70;13.95;;;18.90;99.90;;;20.91;76.30;99862.50;6117829;23;20009;-89
2021/08/01 07:08:08;;;;;;;15.25;13.05;;;19.10;99.90;;;20.84;75.80;99845.66;6221986;23;20415;-89
2021/08/01 07:10:35;;;;;;;20.48;15.30;;;19.10;99.90;;;20.69;76.29;99859.47;6196149;23;20005;-88
2021/08/01 07:13:06;;;;;;;16.55;13.63;;;19.00;99.90;;;20.58;76.23;99850.41;6247298;23;20009;-91
2021/08/01 07:15:33;;;;;;;20.65;15.93;;;18.90;99.90;;;20.24;77.24;99853.69;6221619;23;20339;-87
2021/08/01 07:18:03;;;;;;;19.38;14.98;;;18.70;99.90;;;20.54;76.30;99852.56;6221514;23;20005;-90
2021/08/01 07:20:34;;;;;;;18.98;14.82;;;18.90;99.90;;;20.20;77.32;99846.50;6246127;23;20050;-87
2021/08/01 07:23:06;;;;;;;20.92;15.43;;;18.80;99.90;;;20.26;77.55;99845.56;6222321;23;20012;-88
2021/08/01 07:25:33;;;;;;;19.75;15.25;;;18.80;99.90;;;20.33;77.58;99858.78;6185256;23;20012;-88
2021/08/01 07:28:00;;;;;;;15.77;12.38;;;18.90;99.90;;;20.68;76.28;99854.25;6251664;23;20325;-89
2021/08/01 07:30:26;;;;;;;21.40;13.20;;;19.00;99.90;;;20.69;75.27;99850.16;6252259;23;20060;-89
2021/08/01 07:32:52;;;;;;;14.27;10.82;;;19.00;99.90;;;20.61;74.79;99846.72;6252302;23;20004;-87
2021/08/01 07:35:19;;;;;;;14.20;11.10;;;18.90;99.90;;;20.60;74.90;99864.19;6252927;23;20011;-88
2021/08/01 07:37:45;;;;;;;12.75;9.40;;;18.90;99.90;;;20.68;75.39;99851.41;6252291;23;20011;-88
2021/08/01 07:40:11;;;;;;;11.13;8.57;;;19.00;99.90;;;20.70;74.98;99869.59;6253064;23;20008;-89
2021/08/01 07:42:37;;;;;;;13.82;9.57;;;19.00;99.90;;;20.39;75.23;99854.97;6253569;23;20525;-88
2021/08/01 07:45:10;;;;;;;11.10;7.65;;;18.80;99.90;;;20.22;75.14;99856.19;6252167;23;20146;-89
2021/08/01 07:47:38;;;;;;;10.73;7.18;;;18.70;99.90;;;20.00;75.81;99858.72;6252991;23;20008;-89
2021/08/01 07:50:06;;;;;;;9.15;6.47;;;18.50;99.90;;;20.02;75.49;99866.81;6251780;23;20099;-88
2021/08/01 07:52:34;;;;;;;8.60;6.03;;;18.50;99.90;;;19.84;76.54;99855.88;6252525;23;20072;-89
2021/08/01 07:55:00;;;;;;;11.75;7.28;;;18.40;99.90;;;20.34;77.08;99866.06;6251964;23;20008;-89
2021/08/01 07:57:32;;;;;;;11.05;8.00;;;18.80;99.90;;;21.08;72.29;99866.09;6252979;23;20004;-90
2021/08/01 08:00:05;;;;;;;9.85;7.05;;;19.40;99.90;;;21.80;69.27;99883.50;6278083;22;20004;-89
2021/08/01 08:02:31;;;;;;;9.35;6.45;;;20.20;99.90;;;22.26;67.29;99862.94;6278474;22;20012;-87
2021/08/01 08:04:57;;;;;;;9.20;6.38;;;20.70;99.90;;;23.19;64.20;99872.72;6253888;23;20038;-88
2021/08/01 08:07:23;;;;;;;10.23;6.32;;;21.40;99.90;;;23.50;61.96;99870.75;6253785;23;20008;-90
2021/08/01 08:09:50;;;;;;;10.38;6.07;;;21.90;99.90;;;23.98;60.79;99868.50;6252816;23;20043;-90
2021/08/01 08:12:17;;;;;;;9.07;5.07;;;22.20;99.90;;;23.84;60.17;99872.69;6278806;22;20008;-88
2021/08/01 08:14:43;;;;;;;10.77;5.93;;;22.30;99.90;;;22.14;65.10;99860.09;6280458;22;20397;-87
2021/08/01 08:17:10;;;;;;;6.82;5.30;;;21.50;99.90;;;22.83;64.12;99861.03;6264601;22;20080;-89
2021/08/01 08:19:38;;;;;;;6.32;4.18;;;21.50;99.90;;;23.88;62.14;99864.00;6270899;22;20055;-92
2021/08/01 08:22:05;;;;;;;10.05;4.35;;;22.00;99.90;;;24.91;58.13;99861.34;6271062;22;20075;-91
2021/08/01 08:24:31;;;;;;;5.25;3.50;;;22.70;99.90;;;25.12;54.93;99868.16;6270989;22;20039;-90
2021/08/01 08:26:57;;;;;;;7.03;3.28;;;23.10;99.90;;;25.15;55.67;99868.00;6240263;23;20016;-88
2021/08/01 08:29:23;;;;;;;7.50;3.70;;;23.00;99.90;;;24.01;57.39;99867.56;6222371;23;20017;-87
2021/08/01 08:31:54;;;;;;;4.35;3.40;;;22.50;99.90;;;23.52;59.00;99868.25;6243085;23;20020;-89
2021/08/01 08:34:23;;;;;;;6.65;3.58;;;21.90;99.90;;;22.60;61.55;99860.13;6230788;23;20025;-92
2021/08/01 08:36:54;;;;;;;6.53;3.75;;;21.50;99.90;;;23.42;60.57;99858.03;6241747;23;20016;-90
2021/08/01 08:39:22;;;;;;;4.15;2.50;;;21.70;99.90;;;23.23;60.36;99864.84;6221521;23;20013;-90
2021/08/01 08:41:50;;;;;;;5.70;3.40;;;21.50;99.90;;;22.67;60.86;99858.34;6220179;23;20018;-91
2021/08/01 08:44:18;;;;;;;5.00;2.95;;;21.10;99.90;;;22.47;61.08;99865.09;6218683;23;20004;-88
2021/08/01 08:46:46;;;;;;;4.40;2.70;;;20.80;99.90;;;21.81;63.98;99853.81;6221266;23;20080;-87
2021/08/01 08:49:15;;;;;;;5.00;3.13;;;20.40;99.90;;;21.87;65.11;99846.28;6231645;23;20005;-88
2021/08/01 08:51:53;;;;;;;7.65;3.63;;;20.30;99.90;;;21.51;64.25;99850.25;6229637;23;20013;-90
2021/08/01 08:54:50;;;;;;;11.15;3.45;;;20.10;99.90;;;21.74;64.69;99854.81;6220103;23;20016;-88
2021/08/01 08:57:33;;;;;;;5.00;3.25;;;20.20;99.90;;;21.89;64.50;99858.88;6214238;23;20013;-90
2021/08/01 09:00:19;;;;;;;7.05;3.10;;;20.30;99.90;;;21.71;63.30;99867.09;6215857;23;20008;-90
2021/08/01 09:02:46;;;;;;;6.07;2.80;;;20.20;99.90;;;21.64;64.48;99866.53;6216917;23;20049;-88
2021/08/01 09:05:13;;;;;;;6.97;2.95;;;20.10;99.90;;;21.50;65.18;99871.41;6242917;23;20012;-88
2021/08/01 09:07:41;;;;;;;4.60;2.40;;;20.00;99.90;;;21.95;64.15;99871.25;6216650;23;20039;-90
2021/08/01 09:10:15;;;;;;;6.13;2.88;;;20.30;99.90;;;22.43;61.09;99870.09;6216577;23;20508;-91
2021/08/01 09:12:54;;;;;;;6.65;2.58;;;20.60;99.90;;;22.75;59.76;99879.59;6216374;23;20020;-88
2021/08/01 09:15:27;;;;;;;5.15;2.60;;;21.00;99.90;;;22.71;59.55;99879.72;6216515;23;20438;-89
2021/08/01 09:17:58;;;;;;;4.95;2.33;;;20.90;99.90;;;22.76;59.97;99884.84;6216949;23;20084;-88
2021/08/01 09:20:31;;;;;;;6.40;2.75;;;21.00;99.90;;;22.80;60.37;99876.16;6216635;23;20459;-89
2021/08/01 09:23:00;;;;;;;4.93;2.40;;;21.00;99.90;;;22.58;60.05;99888.25;6217063;23;20039;-89
2021/08/01 09:25:44;;;;;;;4.72;2.10;;;21.00;99.90;;;22.46;59.43;99886.25;6225986;23;20450;-88
2021/08/01 09:28:21;;;;;;;5.57;2.22;;;20.80;99.90;;;22.53;60.35;99885.22;6247269;23;20094;-88
2021/08/01 09:31:04;;;;;;;3.58;2.33;;;20.90;99.90;;;22.28;61.75;99886.03;6272443;22;20095;-89
2021/08/01 09:33:51;;;;;;;5.53;2.35;;;20.70;99.90;;;22.53;60.96;99888.84;6271817;22;20347;-91
2021/08/01 09:36:25;;;;;;;4.15;1.88;;;20.80;99.90;;;23.54;57.82;99891.38;6271833;22;20162;-90
2021/08/01 09:39:06;;;;;;;5.63;2.13;;;21.70;99.90;;;24.33;54.40;99895.63;6247622;23;20000;-89
2021/08/01 09:41:32;;;;;;;3.95;2.15;;;22.40;99.90;;;24.17;55.93;99895.06;6245875;23;20004;-89
2021/08/01 09:44:03;;;;;;;5.43;2.03;;;22.30;99.90;;;23.60;57.10;99900.91;6246415;23;20004;-89
2021/08/01 09:46:49;;;;;;;6.95;2.60;;;21.90;99.90;;;23.44;58.56;99897.47;6246131;23;20012;-87
2021/08/01 09:49:19;;;;;;;5.20;2.22;;;21.70;99.90;;;24.43;57.48;99902.16;6272029;22;20016;-90
2021/08/01 09:51:59;;;;;;;6.07;1.90;;;22.30;99.90;;;25.23;53.24;99905.66;6272878;22;20431;-88
2021/08/01 09:54:46;;;;;;;4.88;1.92;;;23.00;99.90;;;25.64;51.31;99899.28;6252252;23;20032;-90
2021/08/01 09:57:20;;;;;;;4.47;1.92;;;23.50;99.90;;;25.24;49.38;99890.06;6252391;23;20009;-91
2021/08/01 10:00:09;;;;;;;5.20;2.35;;;23.50;99.90;;;24.57;51.75;99907.25;6244689;23;20028;-91
2021/08/01 10:02:39;;;;;;;3.25;2.30;;;22.90;99.90;;;23.52;53.80;99898.81;6245511;23;20012;-90
2021/08/01 10:05:18;;;;;;;4.60;1.88;;;22.10;99.90;;;23.23;56.71;99895.38;6245925;23;20393;-90
2021/08/01 10:07:48;;;;;;;4.25;1.92;;;21.70;99.90;;;23.98;55.51;99897.03;6246295;23;20004;-88
2021/08/01 10:10:25;;;;;;;4.40;1.80;;;22.00;99.90;;;24.56;52.85;99886.47;6245733;23;20008;-90
2021/08/01 10:12:59;;;;;;;5.18;2.20;;;22.70;99.90;;;25.28;49.60;99887.84;6245325;23;20008;-88
2021/08/01 10:15:30;;;;;;;3.63;1.83;;;23.30;99.90;;;25.97;51.32;99885.06;6271426;22;20046;-89
2021/08/01 10:17:57;;;;;;;5.95;1.50;;;23.80;99.90;;;25.98;49.72;99891.56;6247047;23;20032;-90
2021/08/01 10:20:27;;;;;;;4.68;1.73;;;24.00;99.90;;;25.95;49.82;99881.88;6248452;23;20054;-89
2021/08/01 10:22:54;;;;;;;5.25;1.70;;;24.20;99.90;;;26.63;48.09;99880.16;6248594;23;20007;-91
2021/08/01 10:25:33;;;;;;;4.35;1.75;;;24.50;99.90;;;27.20;47.75;99878.00;6186843;23;1145735;-91
2021/08/01 10:28:06;;;;;;;2.95;1.73;;;25.00;99.10;;;27.46;44.32;99883.22;6229582;23;20342;-88
2021/08/01 10:30:34;;;;;;;3.25;1.20;;;25.30;92.70;;;26.99;44.18;99884.06;6217468;23;20012;-89
2021/08/01 10:33:13;;;;;;;2.13;1.38;;;25.30;90.20;;;27.61;44.22;99881.19;6217893;23;20012;-90
2021/08/01 10:35:54;;;;;;;3.42;1.60;;;25.40;91.20;;;27.42;44.52;99886.25;6217727;23;20008;-90
2021/08/01 10:38:25;;;;;;;5.72;2.10;;;25.50;89.10;;;27.64;44.07;99883.84;6218106;23;20052;-88
2021/08/01 10:40:58;;;;;;;3.97;1.60;;;25.60;89.70;;;26.94;46.20;99881.91;6220010;23;20008;-87